Amber Lagoon — V7FS4 — position and weather

sailwx.info

Track history (hours):
 
Tides and Currents Weather Stations Pressure Air Temp Water Temp Dewpoint Dewpoint Depression Visibility Wind Speed Wind Dir Waves Ship Positions

Amber Lagoon

Last reported at 2016-Dec-09 19:09 UTC. Time now 2016-Dec-11 14:02 UTC.
Position N 54°40' W 000°29'.

Length 192 m; draft 7.7 m.

Type: Cargo ship. MMSI: 538090116.

Date/timePositionNaut miles runAvg speedWind from/ knotsBaromVisibWave heightAir tempDewpointWater temp
2016-Dec-09 19:09N 54°40' W 000°29'914.3
2016-Dec-09 18:33N 54°37' W 000°15'1414.2
2016-Dec-09 17:33N 54°32' E 000°07'1414.1
2016-Dec-09 16:33N 54°27' E 000°30'11814.7
2016-Dec-09 08:31N 52°58' E 002°40'6816.7
2016-Dec-09 04:26N 51°49' E 002°38'1415.6
2016-Dec-09 03:33N 51°39' E 002°24'1515.1
2016-Dec-09 02:33N 51°26' E 002°11'1414.1
2016-Dec-09 01:34N 51°13' E 002°04'1514.9
2016-Dec-09 00:34N 51°05' E 001°44'1514.9
2016-Dec-08 23:33N 50°54' E 001°28'4815.1
2016-Dec-08 20:23N 50°25' E 000°28'1316.2
2016-Dec-08 19:34N 50°22' E 000°08'1616.3
2016-Dec-08 18:34N 50°17' W 000°17'1616.4
2016-Dec-08 17:34N 50°14' W 000°42'1717.3
2016-Dec-08 16:33N 50°09' W 001°08'6418.6
2016-Dec-08 13:07N 49°51' W 002°44'1018.0
2016-Dec-08 12:33N 49°49' W 002°59'1817.7
2016-Dec-08 11:33N 49°46' W 003°26'1717.5
2016-Dec-08 10:34N 49°44' W 003°53'1817.3
2016-Dec-08 09:31N 49°42' W 004°21'3215.8
2016-Dec-08 07:29N 49°38' W 005°10'84 6.3
2016-Dec-07 18:14N 50°56' W 005°58'3 4.1
2016-Dec-07 17:27N 50°59' W 005°54'4 4.2
2016-Dec-07 16:25N 51°02' W 005°50'4 4.2
2016-Dec-07 15:34N 51°04' W 005°45'4 4.0
2016-Dec-07 14:31N 51°07' W 005°40'4 3.9
2016-Dec-07 13:33N 51°10' W 005°37'4 3.8
2016-Dec-07 12:33N 51°12' W 005°31'5 4.5
2016-Dec-07 11:33N 51°13' W 005°24'4 4.3
2016-Dec-07 10:33N 51°13' W 005°17'4 4.1
2016-Dec-07 09:33N 51°14' W 005°11'5 5.0
2016-Dec-07 08:33N 51°15' W 005°03'1413.9
2016-Dec-07 07:33N 51°17' W 004°41'1515.0
2016-Dec-07 06:34N 51°17' W 004°17'34 0.8
2016-Dec-05 09:23N 51°20' W 003°23'911.1
2016-Dec-05 08:33N 51°22' W 003°09'1212.0
2016-Dec-05 07:33N 51°28' W 002°52'6 5.7
2016-Dec-05 06:33N 51°30' W 002°43'0 0.3
2016-Dec-05 05:33N 51°30' W 002°43'0 0.0
2016-Dec-05 04:33N 51°30' W 002°43'0 0.0
2016-Dec-05 03:33N 51°30' W 002°43'0 0.0
2016-Dec-05 02:33N 51°30' W 002°43'0 0.0
2016-Dec-05 01:33N 51°30' W 002°43'0 0.0
2016-Dec-05 00:33N 51°30' W 002°43'0 0.0
2016-Dec-04 23:33N 51°30' W 002°43'0 0.0
2016-Dec-04 22:33N 51°30' W 002°43'0 0.0
2016-Dec-04 21:33N 51°30' W 002°43'0 0.0
2016-Dec-04 20:33N 51°30' W 002°43'0 0.0
2016-Dec-04 19:32N 51°30' W 002°43'0 0.0
2016-Dec-04 18:32N 51°30' W 002°43'0 0.0
2016-Dec-04 17:32N 51°30' W 002°43'0 0.0
2016-Dec-04 16:29N 51°30' W 002°43'0 0.0
2016-Dec-04 15:32N 51°30' W 002°43'0 0.0
2016-Dec-04 14:32N 51°30' W 002°43'0 0.0
2016-Dec-04 13:32N 51°30' W 002°43'0 0.0
2016-Dec-04 12:32N 51°30' W 002°43'0 0.0
2016-Dec-04 11:32N 51°30' W 002°43'0 0.0
2016-Dec-04 10:32N 51°30' W 002°43'0 0.0
2016-Dec-04 09:32N 51°30' W 002°43'0 0.0
2016-Dec-04 08:32N 51°30' W 002°43'0 0.0
2016-Dec-04 07:32N 51°30' W 002°43'0 0.0
2016-Dec-04 06:32N 51°30' W 002°43'0 0.0
2016-Dec-04 05:29N 51°30' W 002°43'0 0.0
2016-Dec-04 04:32N 51°30' W 002°43'0 0.0
2016-Dec-04 03:32N 51°30' W 002°43'0 0.0
2016-Dec-04 02:32N 51°30' W 002°43'0 0.0
2016-Dec-04 01:32N 51°30' W 002°43'0 0.0
2016-Dec-04 00:32N 51°30' W 002°43'0 0.0
2016-Dec-03 23:29N 51°30' W 002°43'0 0.0
2016-Dec-03 22:32N 51°30' W 002°43'0 0.0
2016-Dec-03 21:32N 51°30' W 002°43'0 0.0
2016-Dec-03 20:32N 51°30' W 002°43'0 0.0
2016-Dec-03 19:32N 51°30' W 002°43'0 0.0
2016-Dec-03 18:32N 51°30' W 002°43'0 0.0
2016-Dec-03 17:26N 51°30' W 002°43'0 0.0
2016-Dec-03 16:29N 51°30' W 002°43'0 0.0
2016-Dec-03 15:32N 51°30' W 002°43'0 0.0
2016-Dec-03 14:32N 51°30' W 002°43'0 0.0
2016-Dec-03 13:29N 51°30' W 002°43'0 0.0
2016-Dec-03 12:32N 51°30' W 002°43'0 0.0
2016-Dec-03 11:32N 51°30' W 002°43'0 0.0
2016-Dec-03 10:14N 51°30' W 002°43'0 0.0
2016-Dec-03 09:32N 51°30' W 002°43'0 0.0
2016-Dec-03 08:28N 51°30' W 002°43'0 0.0
2016-Dec-03 07:31N 51°30' W 002°43'0 0.0
2016-Dec-03 06:31N 51°30' W 002°43'0 0.0
2016-Dec-03 05:31N 51°30' W 002°43'0 0.0
2016-Dec-03 04:31N 51°30' W 002°43'0 0.0
2016-Dec-03 03:31N 51°30' W 002°43'0 0.0
2016-Dec-03 02:31N 51°30' W 002°43'0 0.0
2016-Dec-03 01:31N 51°30' W 002°43'0 0.0
2016-Dec-03 00:31N 51°30' W 002°43'0 0.0
2016-Dec-02 23:31N 51°30' W 002°43'0 0.0
2016-Dec-02 22:31N 51°30' W 002°43'0 0.0
2016-Dec-02 21:31N 51°30' W 002°43'0 0.0
2016-Dec-02 20:31N 51°30' W 002°43'0 0.0
2016-Dec-02 19:31N 51°30' W 002°43'0 0.0
2016-Dec-02 18:28N 51°30' W 002°43'0 0.0
2016-Dec-02 17:31N 51°30' W 002°43'0 0.0
2016-Dec-02 16:31N 51°30' W 002°43'0 0.0
2016-Dec-02 15:28N 51°30' W 002°43'0 0.0
2016-Dec-02 14:31N 51°30' W 002°43'0 0.0
2016-Dec-02 13:31N 51°30' W 002°43'0 0.0
2016-Dec-02 12:31N 51°30' W 002°43'0 0.0
2016-Dec-02 11:31N 51°30' W 002°43'0 0.0
2016-Dec-02 10:31N 51°30' W 002°43'0 0.0
2016-Dec-02 09:31N 51°30' W 002°43'0 0.0
2016-Dec-02 08:31N 51°30' W 002°43'0 0.0
2016-Dec-02 07:31N 51°30' W 002°43'0 0.0
2016-Dec-02 06:31N 51°30' W 002°43'0 0.0
2016-Dec-02 05:31N 51°30' W 002°43'0 0.0
2016-Dec-02 04:31N 51°30' W 002°43'0 0.0
2016-Dec-02 03:31N 51°30' W 002°43'0 0.0
2016-Dec-02 02:31N 51°30' W 002°43'0 0.0
2016-Dec-02 01:28N 51°30' W 002°43'0 0.0
2016-Dec-02 00:31N 51°30' W 002°43'0 0.0
2016-Dec-01 23:28N 51°30' W 002°43'0 0.0
2016-Dec-01 22:34N 51°30' W 002°43'0 0.0
2016-Dec-01 21:33N 51°30' W 002°43'0 0.0
2016-Dec-01 20:33N 51°30' W 002°43'0 0.0
2016-Dec-01 19:32N 51°30' W 002°43'0 0.0
2016-Dec-01 18:29N 51°30' W 002°43'0 0.0
2016-Dec-01 17:32N 51°30' W 002°43'0 0.0
2016-Dec-01 16:32N 51°30' W 002°43'0 0.0
2016-Dec-01 15:32N 51°30' W 002°43'0 0.0
2016-Dec-01 14:32N 51°30' W 002°43'0 0.0
2016-Dec-01 13:32N 51°30' W 002°43'0 0.0
2016-Dec-01 12:32N 51°30' W 002°43'0 0.0
2016-Dec-01 11:32N 51°30' W 002°43'0 0.0
2016-Dec-01 10:32N 51°30' W 002°43'0 0.0
2016-Dec-01 09:32N 51°30' W 002°43'0 0.0
2016-Dec-01 08:32N 51°30' W 002°43'0 0.0
2016-Dec-01 07:32N 51°30' W 002°43'0 0.0
2016-Dec-01 06:32N 51°30' W 002°43'0 0.0
2016-Dec-01 05:32N 51°30' W 002°43'0 0.0
2016-Dec-01 04:32N 51°30' W 002°43'0 0.0
2016-Dec-01 03:32N 51°30' W 002°43'0 0.0
2016-Dec-01 02:32N 51°30' W 002°43'0 0.0
2016-Dec-01 01:32N 51°30' W 002°43'0 0.0
2016-Dec-01 00:32N 51°30' W 002°43'0 0.0
2016-Nov-30 23:32N 51°30' W 002°43'0 0.0
2016-Nov-30 22:32N 51°30' W 002°43'0 0.0
2016-Nov-30 21:26N 51°30' W 002°43'0 0.0
2016-Nov-30 20:32N 51°30' W 002°43'0 0.0
2016-Nov-30 19:32N 51°30' W 002°43'0 0.0
2016-Nov-30 18:32N 51°30' W 002°43'0 0.0
2016-Nov-30 17:32N 51°30' W 002°43'0 0.0
2016-Nov-30 16:32N 51°30' W 002°43'0 0.0
2016-Nov-30 15:32N 51°30' W 002°43'0 0.0
2016-Nov-30 14:32N 51°30' W 002°43'0 0.0
2016-Nov-30 13:31N 51°30' W 002°43'0 0.0
2016-Nov-30 12:31N 51°30' W 002°43'0 0.0
2016-Nov-30 11:31N 51°30' W 002°43'0 0.0
2016-Nov-30 10:31N 51°30' W 002°43'0 0.0
2016-Nov-30 09:31N 51°30' W 002°43'0 0.0
2016-Nov-30 08:31N 51°30' W 002°43'0 0.0
2016-Nov-30 07:28N 51°30' W 002°43'0 0.0
2016-Nov-30 06:31N 51°30' W 002°43'0 0.0
2016-Nov-30 05:31N 51°30' W 002°43'0 0.0
2016-Nov-30 04:31N 51°30' W 002°43'0 0.0
2016-Nov-30 03:31N 51°30' W 002°43'0 0.0
2016-Nov-30 02:31N 51°30' W 002°43'0 0.0
2016-Nov-30 01:31N 51°30' W 002°43'0 0.0
2016-Nov-30 00:31N 51°30' W 002°43'0 0.0
2016-Nov-29 23:31N 51°30' W 002°43'0 0.0
2016-Nov-29 22:31N 51°30' W 002°43'0 0.0
2016-Nov-29 21:31N 51°30' W 002°43'0 0.0
2016-Nov-29 20:31N 51°30' W 002°43'0 0.0
2016-Nov-29 19:28N 51°30' W 002°43'  
Track history (hours):
 
Tides and Currents Weather Stations Pressure Air Temp Water Temp Dewpoint Dewpoint Depression Visibility Wind Speed Wind Dir Waves Ship Positions

Amber Lagoon

Last reported at 2016-Dec-09 19:09 UTC. Time now 2016-Dec-11 14:02 UTC.
Position N 54°40' W 000°29'.

Length 192 m; draft 7.7 m.

Type: Cargo ship. MMSI: 538090116.

Date/timePositionNaut miles runAvg speedWind from/ knotsBaromVisibWave heightAir tempDewpointWater temp
2016-Dec-09 19:09N 54°40' W 000°29'914.3
2016-Dec-09 18:33N 54°37' W 000°15'1414.2
2016-Dec-09 17:33N 54°32' E 000°07'1414.1
2016-Dec-09 16:33N 54°27' E 000°30'11814.7
2016-Dec-09 08:31N 52°58' E 002°40'6816.7
2016-Dec-09 04:26N 51°49' E 002°38'1415.6
2016-Dec-09 03:33N 51°39' E 002°24'1515.1
2016-Dec-09 02:33N 51°26' E 002°11'1414.1
2016-Dec-09 01:34N 51°13' E 002°04'1514.9
2016-Dec-09 00:34N 51°05' E 001°44'1514.9
2016-Dec-08 23:33N 50°54' E 001°28'4815.1
2016-Dec-08 20:23N 50°25' E 000°28'1316.2
2016-Dec-08 19:34N 50°22' E 000°08'1616.3
2016-Dec-08 18:34N 50°17' W 000°17'1616.4
2016-Dec-08 17:34N 50°14' W 000°42'1717.3
2016-Dec-08 16:33N 50°09' W 001°08'6418.6
2016-Dec-08 13:07N 49°51' W 002°44'1018.0
2016-Dec-08 12:33N 49°49' W 002°59'1817.7
2016-Dec-08 11:33N 49°46' W 003°26'1717.5
2016-Dec-08 10:34N 49°44' W 003°53'1817.3
2016-Dec-08 09:31N 49°42' W 004°21'3215.8
2016-Dec-08 07:29N 49°38' W 005°10'84 6.3
2016-Dec-07 18:14N 50°56' W 005°58'3 4.1
2016-Dec-07 17:27N 50°59' W 005°54'4 4.2
2016-Dec-07 16:25N 51°02' W 005°50'4 4.2
2016-Dec-07 15:34N 51°04' W 005°45'4 4.0
2016-Dec-07 14:31N 51°07' W 005°40'4 3.9
2016-Dec-07 13:33N 51°10' W 005°37'4 3.8
2016-Dec-07 12:33N 51°12' W 005°31'5 4.5
2016-Dec-07 11:33N 51°13' W 005°24'4 4.3
2016-Dec-07 10:33N 51°13' W 005°17'4 4.1
2016-Dec-07 09:33N 51°14' W 005°11'5 5.0
2016-Dec-07 08:33N 51°15' W 005°03'1413.9
2016-Dec-07 07:33N 51°17' W 004°41'1515.0
2016-Dec-07 06:34N 51°17' W 004°17'34 0.8
2016-Dec-05 09:23N 51°20' W 003°23'911.1
2016-Dec-05 08:33N 51°22' W 003°09'1212.0
2016-Dec-05 07:33N 51°28' W 002°52'6 5.7
2016-Dec-05 06:33N 51°30' W 002°43'0 0.3
2016-Dec-05 05:33N 51°30' W 002°43'0 0.0
2016-Dec-05 04:33N 51°30' W 002°43'0 0.0
2016-Dec-05 03:33N 51°30' W 002°43'0 0.0
2016-Dec-05 02:33N 51°30' W 002°43'0 0.0
2016-Dec-05 01:33N 51°30' W 002°43'0 0.0
2016-Dec-05 00:33N 51°30' W 002°43'0 0.0
2016-Dec-04 23:33N 51°30' W 002°43'0 0.0
2016-Dec-04 22:33N 51°30' W 002°43'0 0.0
2016-Dec-04 21:33N 51°30' W 002°43'0 0.0
2016-Dec-04 20:33N 51°30' W 002°43'0 0.0
2016-Dec-04 19:32N 51°30' W 002°43'0 0.0
2016-Dec-04 18:32N 51°30' W 002°43'0 0.0
2016-Dec-04 17:32N 51°30' W 002°43'0 0.0
2016-Dec-04 16:29N 51°30' W 002°43'0 0.0
2016-Dec-04 15:32N 51°30' W 002°43'0 0.0
2016-Dec-04 14:32N 51°30' W 002°43'0 0.0
2016-Dec-04 13:32N 51°30' W 002°43'0 0.0
2016-Dec-04 12:32N 51°30' W 002°43'0 0.0
2016-Dec-04 11:32N 51°30' W 002°43'0 0.0
2016-Dec-04 10:32N 51°30' W 002°43'0 0.0
2016-Dec-04 09:32N 51°30' W 002°43'0 0.0
2016-Dec-04 08:32N 51°30' W 002°43'0 0.0
2016-Dec-04 07:32N 51°30' W 002°43'0 0.0
2016-Dec-04 06:32N 51°30' W 002°43'0 0.0
2016-Dec-04 05:29N 51°30' W 002°43'0 0.0
2016-Dec-04 04:32N 51°30' W 002°43'0 0.0
2016-Dec-04 03:32N 51°30' W 002°43'0 0.0
2016-Dec-04 02:32N 51°30' W 002°43'0 0.0
2016-Dec-04 01:32N 51°30' W 002°43'0 0.0
2016-Dec-04 00:32N 51°30' W 002°43'0 0.0
2016-Dec-03 23:29N 51°30' W 002°43'0 0.0
2016-Dec-03 22:32N 51°30' W 002°43'0 0.0
2016-Dec-03 21:32N 51°30' W 002°43'0 0.0
2016-Dec-03 20:32N 51°30' W 002°43'0 0.0
2016-Dec-03 19:32N 51°30' W 002°43'0 0.0
2016-Dec-03 18:32N 51°30' W 002°43'0 0.0
2016-Dec-03 17:26N 51°30' W 002°43'0 0.0
2016-Dec-03 16:29N 51°30' W 002°43'0 0.0
2016-Dec-03 15:32N 51°30' W 002°43'0 0.0
2016-Dec-03 14:32N 51°30' W 002°43'0 0.0
2016-Dec-03 13:29N 51°30' W 002°43'0 0.0
2016-Dec-03 12:32N 51°30' W 002°43'0 0.0
2016-Dec-03 11:32N 51°30' W 002°43'0 0.0
2016-Dec-03 10:14N 51°30' W 002°43'0 0.0
2016-Dec-03 09:32N 51°30' W 002°43'0 0.0
2016-Dec-03 08:28N 51°30' W 002°43'0 0.0
2016-Dec-03 07:31N 51°30' W 002°43'0 0.0
2016-Dec-03 06:31N 51°30' W 002°43'0 0.0
2016-Dec-03 05:31N 51°30' W 002°43'0 0.0
2016-Dec-03 04:31N 51°30' W 002°43'0 0.0
2016-Dec-03 03:31N 51°30' W 002°43'0 0.0
2016-Dec-03 02:31N 51°30' W 002°43'0 0.0
2016-Dec-03 01:31N 51°30' W 002°43'0 0.0
2016-Dec-03 00:31N 51°30' W 002°43'0 0.0
2016-Dec-02 23:31N 51°30' W 002°43'0 0.0
2016-Dec-02 22:31N 51°30' W 002°43'0 0.0
2016-Dec-02 21:31N 51°30' W 002°43'0 0.0
2016-Dec-02 20:31N 51°30' W 002°43'0 0.0
2016-Dec-02 19:31N 51°30' W 002°43'0 0.0
2016-Dec-02 18:28N 51°30' W 002°43'0 0.0
2016-Dec-02 17:31N 51°30' W 002°43'0 0.0
2016-Dec-02 16:31N 51°30' W 002°43'0 0.0
2016-Dec-02 15:28N 51°30' W 002°43'0 0.0
2016-Dec-02 14:31N 51°30' W 002°43'0 0.0
2016-Dec-02 13:31N 51°30' W 002°43'0 0.0
2016-Dec-02 12:31N 51°30' W 002°43'0 0.0
2016-Dec-02 11:31N 51°30' W 002°43'0 0.0
2016-Dec-02 10:31N 51°30' W 002°43'0 0.0
2016-Dec-02 09:31N 51°30' W 002°43'0 0.0
2016-Dec-02 08:31N 51°30' W 002°43'0 0.0
2016-Dec-02 07:31N 51°30' W 002°43'0 0.0
2016-Dec-02 06:31N 51°30' W 002°43'0 0.0
2016-Dec-02 05:31N 51°30' W 002°43'0 0.0
2016-Dec-02 04:31N 51°30' W 002°43'0 0.0
2016-Dec-02 03:31N 51°30' W 002°43'0 0.0
2016-Dec-02 02:31N 51°30' W 002°43'0 0.0
2016-Dec-02 01:28N 51°30' W 002°43'0 0.0
2016-Dec-02 00:31N 51°30' W 002°43'0 0.0
2016-Dec-01 23:28N 51°30' W 002°43'0 0.0
2016-Dec-01 22:34N 51°30' W 002°43'0 0.0
2016-Dec-01 21:33N 51°30' W 002°43'0 0.0
2016-Dec-01 20:33N 51°30' W 002°43'0 0.0
2016-Dec-01 19:32N 51°30' W 002°43'0 0.0
2016-Dec-01 18:29N 51°30' W 002°43'0 0.0
2016-Dec-01 17:32N 51°30' W 002°43'0 0.0
2016-Dec-01 16:32N 51°30' W 002°43'0 0.0
2016-Dec-01 15:32N 51°30' W 002°43'0 0.0
2016-Dec-01 14:32N 51°30' W 002°43'0 0.0
2016-Dec-01 13:32N 51°30' W 002°43'0 0.0
2016-Dec-01 12:32N 51°30' W 002°43'0 0.0
2016-Dec-01 11:32N 51°30' W 002°43'0 0.0
2016-Dec-01 10:32N 51°30' W 002°43'0 0.0
2016-Dec-01 09:32N 51°30' W 002°43'0 0.0
2016-Dec-01 08:32N 51°30' W 002°43'0 0.0
2016-Dec-01 07:32N 51°30' W 002°43'0 0.0
2016-Dec-01 06:32N 51°30' W 002°43'0 0.0
2016-Dec-01 05:32N 51°30' W 002°43'0 0.0
2016-Dec-01 04:32N 51°30' W 002°43'0 0.0
2016-Dec-01 03:32N 51°30' W 002°43'0 0.0
2016-Dec-01 02:32N 51°30' W 002°43'0 0.0
2016-Dec-01 01:32N 51°30' W 002°43'0 0.0
2016-Dec-01 00:32N 51°30' W 002°43'0 0.0
2016-Nov-30 23:32N 51°30' W 002°43'0 0.0
2016-Nov-30 22:32N 51°30' W 002°43'0 0.0
2016-Nov-30 21:26N 51°30' W 002°43'0 0.0
2016-Nov-30 20:32N 51°30' W 002°43'0 0.0
2016-Nov-30 19:32N 51°30' W 002°43'0 0.0
2016-Nov-30 18:32N 51°30' W 002°43'0 0.0
2016-Nov-30 17:32N 51°30' W 002°43'0 0.0
2016-Nov-30 16:32N 51°30' W 002°43'0 0.0
2016-Nov-30 15:32N 51°30' W 002°43'0 0.0
2016-Nov-30 14:32N 51°30' W 002°43'0 0.0
2016-Nov-30 13:31N 51°30' W 002°43'0 0.0
2016-Nov-30 12:31N 51°30' W 002°43'0 0.0
2016-Nov-30 11:31N 51°30' W 002°43'0 0.0
2016-Nov-30 10:31N 51°30' W 002°43'0 0.0
2016-Nov-30 09:31N 51°30' W 002°43'0 0.0
2016-Nov-30 08:31N 51°30' W 002°43'0 0.0
2016-Nov-30 07:28N 51°30' W 002°43'0 0.0
2016-Nov-30 06:31N 51°30' W 002°43'0 0.0
2016-Nov-30 05:31N 51°30' W 002°43'0 0.0
2016-Nov-30 04:31N 51°30' W 002°43'0 0.0
2016-Nov-30 03:31N 51°30' W 002°43'0 0.0
2016-Nov-30 02:31N 51°30' W 002°43'0 0.0
2016-Nov-30 01:31N 51°30' W 002°43'0 0.0
2016-Nov-30 00:31N 51°30' W 002°43'0 0.0
2016-Nov-29 23:31N 51°30' W 002°43'0 0.0
2016-Nov-29 22:31N 51°30' W 002°43'0 0.0
2016-Nov-29 21:31N 51°30' W 002°43'0 0.0
2016-Nov-29 20:31N 51°30' W 002°43'0 0.0
2016-Nov-29 19:28N 51°30' W 002°43'  

Dump ship's entire track history